Clark Fork, Idaho
Current Conditions -  °F | °C
As of 8:15 PM on Tuesday 25 Nov 2014 (Local Time) from KSZT Reporting Station
Light Rain Light Rain  
Wind Chill: 34°   Ceiling: 2800
Heat Index: 34°   Visibility: 7mi
Dew Point: 34°   Wind: 0mph
Humidity: 100%   Direction: NA
Pressure: 30.2"   Gusts: NA
Location:  48.15°N, 116.18°W
Report Text: KSZT 260415Z AUTO 00000KT 7SM -RA OVC028 01/01 A3020 RMK AO2
Loading
Personal Weather Stations






























Interactive Weather Map New forecast layout! Learn more

10-Day Weather Forecast

Advertisements
Track Severe Weather on mobile